createdAt,value
2016-12-17T00:00:36.924Z,0
2016-12-17T00:01:17.424Z,0
2016-12-17T00:01:57.920Z,0
2016-12-17T00:02:38.435Z,0
2016-12-17T00:03:18.927Z,0
2016-12-17T00:03:59.429Z,0
2016-12-17T00:04:39.908Z,0
2016-12-17T00:05:20.396Z,0
2016-12-17T00:06:00.891Z,0
2016-12-17T00:06:41.388Z,0
2016-12-17T00:07:21.887Z,0
2016-12-17T00:08:02.380Z,0
2016-12-17T00:08:42.881Z,0
2016-12-17T00:09:23.364Z,0
2016-12-17T00:10:03.856Z,0
2016-12-17T00:10:44.349Z,0
2016-12-17T00:11:24.868Z,0
2016-12-17T00:12:05.358Z,0
2016-12-17T00:12:45.866Z,0
2016-12-17T00:13:26.360Z,0
2016-12-17T00:14:06.877Z,0
2016-12-17T00:14:47.344Z,0
2016-12-17T00:15:27.837Z,0
2016-12-17T00:16:08.331Z,0
2016-12-17T00:16:48.831Z,0
2016-12-17T00:17:29.350Z,0
2016-12-17T00:18:09.884Z,0
2016-12-17T00:18:50.372Z,0
2016-12-17T00:19:30.867Z,0
2016-12-17T00:20:11.359Z,0
2016-12-17T00:20:51.865Z,0
2016-12-17T00:21:32.359Z,0
2016-12-17T00:22:12.866Z,0
2016-12-17T00:22:53.356Z,0
2016-12-17T00:23:33.854Z,0
2016-12-17T00:24:14.349Z,0
2016-12-17T00:24:54.891Z,0
2016-12-17T00:25:35.381Z,0
2016-12-17T00:26:15.875Z,0
2016-12-17T00:26:56.380Z,0
2016-12-17T00:27:36.876Z,0
2016-12-17T00:28:17.356Z,0
2016-12-17T00:28:57.868Z,0
2016-12-17T00:29:38.355Z,0
2016-12-17T00:30:18.857Z,0
2016-12-17T00:30:59.342Z,0
2016-12-17T00:31:39.873Z,0
2016-12-17T00:32:20.354Z,0
2016-12-17T00:33:00.829Z,0
2016-12-17T00:33:41.311Z,0
2016-12-17T00:34:21.777Z,0
2016-12-17T00:35:02.264Z,0
2016-12-17T00:35:42.758Z,0
2016-12-17T00:36:23.234Z,0
2016-12-17T00:37:03.757Z,0
2016-12-17T00:37:44.240Z,0
2016-12-17T00:38:24.740Z,0
2016-12-17T00:39:05.235Z,0
2016-12-17T00:39:45.733Z,0
2016-12-17T00:40:26.223Z,0
2016-12-17T00:41:06.707Z,0
2016-12-17T00:41:47.224Z,0
2016-12-17T00:42:27.692Z,0
2016-12-17T00:43:08.146Z,0
2016-12-17T00:43:48.655Z,0
2016-12-17T00:44:29.151Z,0
2016-12-17T00:45:09.639Z,0
2016-12-17T00:45:50.147Z,0
2016-12-17T00:46:30.620Z,0
2016-12-17T00:47:11.129Z,0
2016-12-17T00:47:51.592Z,0
2016-12-17T00:48:32.092Z,0
2016-12-17T00:49:12.578Z,0
2016-12-17T00:49:53.079Z,0
2016-12-17T00:50:33.594Z,0
2016-12-17T00:51:14.092Z,0
2016-12-17T00:51:54.576Z,0
2016-12-17T00:52:35.069Z,0
2016-12-17T00:53:15.565Z,0
2016-12-17T00:53:56.080Z,0
2016-12-17T00:54:36.555Z,0
2016-12-17T00:55:17.044Z,0
2016-12-17T00:55:57.534Z,0
2016-12-17T00:56:38.027Z,0
2016-12-17T00:57:18.525Z,0
2016-12-17T00:57:59.020Z,0
2016-12-17T00:58:39.491Z,0
2016-12-17T00:59:20.007Z,0
2016-12-17T01:00:00.519Z,0
2016-12-17T01:00:40.981Z,0
2016-12-17T01:01:21.439Z,0
2016-12-17T01:02:01.926Z,0
2016-12-17T01:02:42.433Z,0
2016-12-17T01:03:22.903Z,0
2016-12-17T01:04:03.385Z,0
2016-12-17T01:04:43.875Z,0
2016-12-17T01:05:24.374Z,0
2016-12-17T01:06:04.859Z,0
2016-12-17T01:06:45.352Z,0
2016-12-17T01:07:25.851Z,0
2016-12-17T01:08:06.337Z,0
2016-12-17T01:08:46.819Z,0
2016-12-17T01:09:27.372Z,0
2016-12-17T01:10:07.879Z,0
2016-12-17T01:10:48.358Z,0
2016-12-17T01:11:28.854Z,0
2016-12-17T01:12:09.340Z,0
2016-12-17T01:12:49.875Z,0
2016-12-17T01:13:30.358Z,0
2016-12-17T01:14:10.813Z,0
2016-12-17T01:14:51.317Z,0
2016-12-17T01:15:31.808Z,0
2016-12-17T01:16:12.317Z,0
2016-12-17T01:16:52.788Z,0
2016-12-17T01:17:33.267Z,0
2016-12-17T01:18:13.758Z,0
2016-12-17T01:18:54.234Z,0
2016-12-17T01:19:34.734Z,0
2016-12-17T01:20:15.291Z,0
2016-12-17T01:20:55.783Z,0
2016-12-17T01:21:36.285Z,0
2016-12-17T01:22:16.775Z,0
2016-12-17T01:22:57.269Z,0
2016-12-17T01:23:37.770Z,0
2016-12-17T01:24:18.274Z,0
2016-12-17T01:24:58.774Z,0
2016-12-17T01:25:39.255Z,0
2016-12-17T01:26:19.760Z,0
2016-12-17T01:27:00.294Z,0
2016-12-17T01:27:40.782Z,0
2016-12-17T01:28:21.277Z,0
2016-12-17T01:29:01.800Z,0
2016-12-17T01:29:42.259Z,0
2016-12-17T01:30:22.754Z,0
2016-12-17T01:31:03.235Z,0
2016-12-17T01:31:43.736Z,0
2016-12-17T01:32:24.229Z,0
2016-12-17T01:33:04.723Z,0
2016-12-17T01:33:45.226Z,0
2016-12-17T01:34:25.701Z,0
2016-12-17T01:35:06.216Z,0
2016-12-17T01:35:46.699Z,0
2016-12-17T01:36:27.183Z,0
2016-12-17T01:37:07.671Z,0
2016-12-17T01:37:48.176Z,0
2016-12-17T01:38:28.674Z,0
2016-12-17T01:39:09.171Z,0
2016-12-17T01:39:49.657Z,0
2016-12-17T01:40:30.145Z,0
2016-12-17T01:41:10.662Z,0
2016-12-17T01:41:51.151Z,0
2016-12-17T01:42:31.636Z,0
2016-12-17T01:43:12.224Z,0
2016-12-17T01:43:52.729Z,0
2016-12-17T01:44:33.227Z,0
2016-12-17T01:45:13.711Z,0
2016-12-17T01:45:54.201Z,0
2016-12-17T01:46:34.696Z,0
2016-12-17T01:47:15.201Z,0
2016-12-17T01:47:55.688Z,0
2016-12-17T01:48:36.196Z,0
2016-12-17T01:49:16.659Z,0
2016-12-17T01:49:57.188Z,0
2016-12-17T01:50:37.678Z,0
2016-12-17T01:51:18.188Z,0
2016-12-17T01:51:58.668Z,0
2016-12-17T01:52:39.147Z,0
2016-12-17T01:53:19.643Z,0
2016-12-17T01:54:00.113Z,0
2016-12-17T01:54:40.605Z,0
2016-12-17T01:55:21.108Z,0
2016-12-17T01:56:01.605Z,0
2016-12-17T01:56:42.096Z,0
2016-12-17T01:57:22.587Z,0
2016-12-17T01:58:03.096Z,0
2016-12-17T01:58:43.575Z,0
2016-12-17T01:59:24.076Z,0
2016-12-17T02:00:04.567Z,0
2016-12-17T02:00:45.115Z,0
2016-12-17T02:01:25.605Z,0
2016-12-17T02:02:06.104Z,0
2016-12-17T02:02:46.594Z,0
2016-12-17T02:03:27.099Z,0
2016-12-17T02:04:07.588Z,0
2016-12-17T02:04:48.083Z,0
2016-12-17T02:05:28.581Z,0
2016-12-17T02:06:09.080Z,0
2016-12-17T02:06:49.570Z,0
2016-12-17T02:07:30.106Z,0
2016-12-17T02:08:10.617Z,0
2016-12-17T02:08:51.086Z,0
2016-12-17T02:09:31.620Z,0
2016-12-17T02:10:12.105Z,0
2016-12-17T02:10:52.611Z,0
2016-12-17T02:11:33.110Z,0
2016-12-17T02:12:13.615Z,0
2016-12-17T02:12:54.114Z,0
2016-12-17T02:13:34.598Z,0
2016-12-17T02:14:15.123Z,0
2016-12-17T02:14:55.615Z,0
2016-12-17T02:15:36.105Z,0
2016-12-17T02:16:16.590Z,0
2016-12-17T02:16:57.067Z,0
2016-12-17T02:17:37.569Z,0
2016-12-17T02:18:18.060Z,0
2016-12-17T02:18:58.538Z,0
2016-12-17T02:19:39.026Z,0
2016-12-17T02:20:19.525Z,0
2016-12-17T02:21:00.010Z,0
2016-12-17T02:21:40.486Z,0
2016-12-17T02:22:20.980Z,0
2016-12-17T02:23:01.483Z,0
2016-12-17T02:23:41.966Z,0
2016-12-17T02:24:22.462Z,0
2016-12-17T02:25:02.955Z,0
2016-12-17T02:25:43.444Z,0
2016-12-17T02:26:23.933Z,0
2016-12-17T02:27:04.420Z,0
2016-12-17T02:27:44.911Z,0
2016-12-17T02:28:25.402Z,0
2016-12-17T02:29:05.889Z,0
2016-12-17T02:29:46.399Z,0
2016-12-17T02:30:26.878Z,0
2016-12-17T02:31:07.389Z,0
2016-12-17T02:31:47.875Z,0
2016-12-17T02:32:28.367Z,0
2016-12-17T02:33:08.852Z,0
2016-12-17T02:33:49.368Z,0
2016-12-17T02:34:29.878Z,0
2016-12-17T02:35:10.341Z,0
2016-12-17T02:35:50.836Z,0
2016-12-17T02:36:31.329Z,0
2016-12-17T02:37:11.823Z,0
2016-12-17T02:37:52.307Z,0
2016-12-17T02:38:32.814Z,0
2016-12-17T02:39:13.311Z,0
2016-12-17T02:39:53.809Z,0
2016-12-17T02:40:34.305Z,0
2016-12-17T02:41:14.794Z,0
2016-12-17T02:41:55.297Z,0
2016-12-17T02:42:35.794Z,0
2016-12-17T02:43:16.283Z,0
2016-12-17T02:43:56.782Z,0
2016-12-17T02:44:37.275Z,0
2016-12-17T02:45:17.772Z,0
2016-12-17T02:45:58.277Z,0
2016-12-17T02:46:38.774Z,0
2016-12-17T02:47:19.266Z,0
2016-12-17T02:47:59.749Z,0
2016-12-17T02:48:40.289Z,0
2016-12-17T02:49:20.783Z,0
2016-12-17T02:50:01.274Z,0
2016-12-17T02:50:41.775Z,0
2016-12-17T02:51:22.288Z,0
2016-12-17T02:52:02.785Z,0
2016-12-17T02:52:43.276Z,0
2016-12-17T02:53:23.777Z,0
2016-12-17T02:54:04.262Z,0
2016-12-17T02:54:44.760Z,0
2016-12-17T02:55:25.294Z,0
2016-12-17T02:56:05.787Z,0
2016-12-17T02:56:46.287Z,0
2016-12-17T02:57:26.782Z,0
2016-12-17T02:58:07.270Z,0
2016-12-17T02:58:47.775Z,0
2016-12-17T02:59:28.280Z,0
2016-12-17T03:00:08.774Z,0
2016-12-17T03:00:49.266Z,0
2016-12-17T03:01:29.757Z,0
2016-12-17T03:02:10.305Z,0
2016-12-17T03:02:50.801Z,0
2016-12-17T03:03:31.289Z,0
2016-12-17T03:04:11.784Z,0
2016-12-17T03:04:52.272Z,0
2016-12-17T03:05:32.771Z,0
2016-12-17T03:06:13.265Z,0
2016-12-17T03:06:53.768Z,0
2016-12-17T03:07:34.233Z,0
2016-12-17T03:08:14.725Z,0
2016-12-17T03:08:55.202Z,0
2016-12-17T03:09:35.700Z,0
2016-12-17T03:10:16.201Z,0
2016-12-17T03:10:56.693Z,0
2016-12-17T03:11:37.190Z,0
2016-12-17T03:12:17.693Z,0
2016-12-17T03:12:58.196Z,0
2016-12-17T03:13:38.686Z,0
2016-12-17T03:14:19.184Z,0
2016-12-17T03:14:59.674Z,0
2016-12-17T03:15:40.176Z,0
2016-12-17T03:16:20.670Z,0
2016-12-17T03:17:01.163Z,0
2016-12-17T03:17:41.651Z,0
2016-12-17T03:18:22.127Z,0
2016-12-17T03:19:02.616Z,0
2016-12-17T03:19:43.096Z,0
2016-12-17T03:20:23.595Z,0
2016-12-17T03:21:04.103Z,0
2016-12-17T03:21:44.615Z,0
2016-12-17T03:22:25.127Z,0
2016-12-17T03:23:05.634Z,0
2016-12-17T03:23:46.121Z,0
2016-12-17T03:24:26.617Z,0
2016-12-17T03:25:07.115Z,0
2016-12-17T03:25:47.604Z,0
2016-12-17T03:26:28.099Z,0
2016-12-17T03:27:08.594Z,0
2016-12-17T03:27:49.100Z,0
2016-12-17T03:28:29.601Z,0
2016-12-17T03:29:10.117Z,0
2016-12-17T03:29:50.602Z,0
2016-12-17T03:30:31.103Z,0
2016-12-17T03:31:11.580Z,0
2016-12-17T03:31:52.067Z,0
2016-12-17T03:32:32.567Z,0
2016-12-17T03:33:13.053Z,0
2016-12-17T03:33:53.534Z,0
2016-12-17T03:34:34.042Z,0
2016-12-17T03:35:14.528Z,0
2016-12-17T03:35:55.024Z,0
2016-12-17T03:36:35.525Z,0
2016-12-17T03:37:16.021Z,0
2016-12-17T03:37:56.521Z,0
2016-12-17T03:38:37.010Z,0
2016-12-17T03:39:17.514Z,0
2016-12-17T03:39:58.010Z,0
2016-12-17T03:40:38.488Z,0
2016-12-17T03:41:18.988Z,0
2016-12-17T03:41:59.487Z,0
2016-12-17T03:42:39.975Z,0
2016-12-17T03:43:20.469Z,0
2016-12-17T03:44:00.978Z,0
2016-12-17T03:44:41.482Z,0
2016-12-17T03:45:21.979Z,0
2016-12-17T03:46:02.485Z,0
2016-12-17T03:46:42.983Z,0
2016-12-17T03:47:23.473Z,0
2016-12-17T03:48:03.962Z,0
2016-12-17T03:48:44.466Z,0
2016-12-17T03:49:24.961Z,0
2016-12-17T03:50:05.463Z,0
2016-12-17T03:50:45.951Z,0
2016-12-17T03:51:26.463Z,0
2016-12-17T03:52:06.950Z,0
2016-12-17T03:52:47.456Z,0
2016-12-17T03:53:27.938Z,0
2016-12-17T03:54:08.417Z,0
2016-12-17T03:54:48.922Z,0
2016-12-17T03:55:29.383Z,0
2016-12-17T03:56:09.915Z,0
2016-12-17T03:56:50.407Z,0
2016-12-17T03:57:30.875Z,0
2016-12-17T03:58:11.379Z,0
2016-12-17T03:58:51.872Z,0
2016-12-17T03:59:32.375Z,0
2016-12-17T04:00:12.860Z,0
2016-12-17T04:00:53.379Z,0
2016-12-17T04:01:33.901Z,0
2016-12-17T04:02:14.378Z,0
2016-12-17T04:02:54.866Z,0
2016-12-17T04:03:35.359Z,0
2016-12-17T04:04:15.836Z,0
2016-12-17T04:04:56.322Z,0
2016-12-17T04:05:36.805Z,0
2016-12-17T04:06:17.303Z,0
2016-12-17T04:06:57.790Z,0
2016-12-17T04:07:38.280Z,0
2016-12-17T04:08:18.786Z,0
2016-12-17T04:08:59.269Z,0
2016-12-17T04:09:39.749Z,0
2016-12-17T04:10:20.252Z,0
2016-12-17T04:11:00.738Z,0
2016-12-17T04:11:41.245Z,0
2016-12-17T04:12:21.739Z,0
2016-12-17T04:13:02.257Z,0
2016-12-17T04:13:42.744Z,0
2016-12-17T04:14:23.239Z,0
2016-12-17T04:15:03.715Z,0
2016-12-17T04:15:44.210Z,0
2016-12-17T04:16:24.709Z,0
2016-12-17T04:17:05.188Z,0
2016-12-17T04:17:45.697Z,0
2016-12-17T04:18:26.182Z,0
2016-12-17T04:19:06.667Z,0
2016-12-17T04:19:47.157Z,0
2016-12-17T04:20:27.636Z,0
2016-12-17T04:21:08.133Z,0
2016-12-17T04:21:48.618Z,0
2016-12-17T04:22:29.099Z,0
2016-12-17T04:23:09.594Z,0
2016-12-17T04:23:50.100Z,0
2016-12-17T04:24:30.590Z,0
2016-12-17T04:25:11.076Z,0
2016-12-17T04:25:51.564Z,0
2016-12-17T04:26:32.055Z,0
2016-12-17T04:27:12.549Z,0
2016-12-17T04:27:53.040Z,0
2016-12-17T04:28:33.517Z,0
2016-12-17T04:29:14.024Z,0
2016-12-17T04:29:54.517Z,0
2016-12-17T04:30:35.067Z,0
2016-12-17T04:31:15.533Z,0
2016-12-17T04:31:56.030Z,0
2016-12-17T04:32:36.514Z,0
2016-12-17T04:33:17.018Z,0
2016-12-17T04:33:57.503Z,0
2016-12-17T04:34:37.973Z,0
2016-12-17T04:35:18.452Z,0
2016-12-17T04:35:58.959Z,0
2016-12-17T04:36:39.463Z,0
2016-12-17T04:37:19.959Z,0
2016-12-17T04:38:00.486Z,0
2016-12-17T04:38:40.977Z,0
2016-12-17T04:39:21.477Z,0
2016-12-17T04:40:01.937Z,0
2016-12-17T04:40:42.433Z,0
2016-12-17T04:41:22.932Z,0
2016-12-17T04:42:03.416Z,0
2016-12-17T04:42:43.917Z,0
2016-12-17T04:43:24.412Z,0
2016-12-17T04:44:04.921Z,0
2016-12-17T04:44:45.405Z,0
2016-12-17T04:45:25.912Z,0
2016-12-17T04:46:06.415Z,0
2016-12-17T04:46:46.927Z,0
2016-12-17T04:47:27.410Z,0
2016-12-17T04:48:07.892Z,0
2016-12-17T04:48:48.386Z,0
2016-12-17T04:49:28.869Z,0
2016-12-17T04:50:09.356Z,0
2016-12-17T04:50:49.845Z,0
2016-12-17T04:51:30.344Z,0
2016-12-17T04:52:10.831Z,0
2016-12-17T04:52:51.348Z,0
2016-12-17T04:53:31.822Z,0
2016-12-17T04:54:12.315Z,0
2016-12-17T04:54:52.817Z,0
2016-12-17T04:55:33.301Z,0
2016-12-17T04:56:13.801Z,0
2016-12-17T04:56:54.293Z,0
2016-12-17T04:57:34.787Z,0
2016-12-17T04:58:15.312Z,0
2016-12-17T04:58:55.816Z,0
2016-12-17T04:59:36.298Z,0
2016-12-17T05:00:16.799Z,0
2016-12-17T05:00:57.257Z,0
2016-12-17T05:01:37.737Z,0
2016-12-17T05:02:18.229Z,0
2016-12-17T05:02:58.717Z,0
2016-12-17T05:03:39.218Z,0
2016-12-17T05:04:19.715Z,0
2016-12-17T05:05:00.185Z,0
2016-12-17T05:05:40.690Z,0
2016-12-17T05:06:21.170Z,0
2016-12-17T05:07:01.688Z,0
2016-12-17T05:07:42.169Z,0
2016-12-17T05:08:22.641Z,0
2016-12-17T05:09:03.123Z,0
2016-12-17T05:09:43.615Z,0
2016-12-17T05:10:24.113Z,0
2016-12-17T05:11:04.605Z,0
2016-12-17T05:11:45.105Z,0
2016-12-17T05:12:25.600Z,0
2016-12-17T05:13:06.097Z,0
2016-12-17T05:13:46.590Z,0
2016-12-17T05:14:27.086Z,0
2016-12-17T05:15:07.580Z,0
2016-12-17T05:15:48.084Z,0
2016-12-17T05:16:28.574Z,0
2016-12-17T05:17:09.064Z,0
2016-12-17T05:17:49.551Z,0
2016-12-17T05:18:30.056Z,0
2016-12-17T05:19:10.527Z,0
2016-12-17T05:19:51.019Z,0
2016-12-17T05:20:31.502Z,0
2016-12-17T05:21:11.982Z,0
2016-12-17T05:21:52.475Z,0
2016-12-17T05:22:32.968Z,0
2016-12-17T05:23:13.453Z,0
2016-12-17T05:23:53.949Z,0
2016-12-17T05:24:34.432Z,0
2016-12-17T05:25:14.943Z,0
2016-12-17T05:25:55.442Z,0
2016-12-17T05:26:35.896Z,0
2016-12-17T05:27:16.405Z,0
2016-12-17T05:27:56.892Z,0
2016-12-17T05:28:37.395Z,0
2016-12-17T05:29:17.873Z,0
2016-12-17T05:29:58.370Z,0
2016-12-17T05:30:38.855Z,0
2016-12-17T05:31:19.394Z,0
2016-12-17T05:31:59.848Z,0
2016-12-17T05:32:40.353Z,0
2016-12-17T05:33:20.839Z,0
2016-12-17T05:34:01.307Z,0
2016-12-17T05:34:41.813Z,0
2016-12-17T05:35:22.297Z,0
2016-12-17T05:36:02.768Z,0
2016-12-17T05:36:43.281Z,0
2016-12-17T05:37:23.770Z,0
2016-12-17T05:38:04.233Z,0
2016-12-17T05:38:44.736Z,0
2016-12-17T05:39:25.192Z,0
2016-12-17T05:40:05.679Z,0
2016-12-17T05:40:46.193Z,0
2016-12-17T05:41:26.680Z,0
2016-12-17T05:42:07.178Z,0
2016-12-17T05:42:47.679Z,0
2016-12-17T05:43:28.180Z,0
2016-12-17T05:44:08.681Z,0
2016-12-17T05:44:49.176Z,0
2016-12-17T05:45:29.671Z,0
2016-12-17T05:46:10.189Z,0
2016-12-17T05:46:50.686Z,0
2016-12-17T05:47:31.184Z,0
2016-12-17T05:48:11.665Z,0
2016-12-17T05:48:52.167Z,0
2016-12-17T05:49:32.648Z,0
2016-12-17T05:50:13.139Z,0
2016-12-17T05:50:53.630Z,0
2016-12-17T05:51:34.133Z,0
2016-12-17T05:52:14.613Z,0
2016-12-17T05:52:55.105Z,0
2016-12-17T05:53:35.596Z,0
2016-12-17T05:54:16.089Z,0
2016-12-17T05:54:56.585Z,0
2016-12-17T05:55:37.084Z,0
2016-12-17T05:56:17.582Z,0
2016-12-17T05:56:58.078Z,0
2016-12-17T05:57:38.562Z,0
2016-12-17T05:58:19.052Z,0
2016-12-17T05:58:59.551Z,0
2016-12-17T05:59:40.039Z,0
2016-12-17T06:00:20.513Z,0
2016-12-17T06:01:01.003Z,0
2016-12-17T06:01:41.504Z,0
2016-12-17T06:02:21.988Z,0
2016-12-17T06:03:02.474Z,0
2016-12-17T06:03:42.970Z,0
2016-12-17T06:04:23.472Z,0
2016-12-17T06:05:03.966Z,0
2016-12-17T06:05:44.475Z,0
2016-12-17T06:06:24.974Z,0
2016-12-17T06:07:05.477Z,0
2016-12-17T06:07:45.983Z,0
2016-12-17T06:08:26.457Z,0
2016-12-17T06:09:06.966Z,0
2016-12-17T06:09:47.457Z,0
2016-12-17T06:10:27.964Z,0
2016-12-17T06:11:08.449Z,0
2016-12-17T06:11:48.945Z,0
2016-12-17T06:12:29.436Z,0
2016-12-17T06:13:09.946Z,0
2016-12-17T06:13:50.401Z,0
2016-12-17T06:14:30.896Z,0
2016-12-17T06:15:11.392Z,0
2016-12-17T06:15:51.865Z,0
2016-12-17T06:16:32.370Z,0
2016-12-17T06:17:12.877Z,0
2016-12-17T06:17:53.349Z,0
2016-12-17T06:18:33.835Z,0
2016-12-17T06:19:14.314Z,0
2016-12-17T06:19:54.797Z,0
2016-12-17T06:20:35.281Z,0
2016-12-17T06:21:15.793Z,0
2016-12-17T06:21:56.262Z,0
2016-12-17T06:22:36.744Z,0
2016-12-17T06:23:17.226Z,0
2016-12-17T06:23:57.719Z,0
2016-12-17T06:24:38.190Z,0
2016-12-17T06:25:18.684Z,0
2016-12-17T06:25:59.146Z,0
2016-12-17T06:26:39.643Z,0
2016-12-17T06:27:20.130Z,0
2016-12-17T06:28:00.694Z,0
2016-12-17T06:28:41.183Z,0
2016-12-17T06:29:21.684Z,0
2016-12-17T06:30:02.172Z,0
2016-12-17T06:30:42.654Z,0
2016-12-17T06:31:23.152Z,0
2016-12-17T06:32:03.632Z,0
2016-12-17T06:32:44.137Z,0
2016-12-17T06:33:24.620Z,0
2016-12-17T06:34:05.108Z,0
2016-12-17T06:34:45.572Z,0
2016-12-17T06:35:26.081Z,0
2016-12-17T06:36:06.584Z,0
2016-12-17T06:36:47.070Z,0
2016-12-17T06:37:27.571Z,0
2016-12-17T06:38:08.066Z,0
2016-12-17T06:38:48.562Z,0
2016-12-17T06:39:29.056Z,0
2016-12-17T06:40:09.537Z,0
2016-12-17T06:40:50.005Z,0
2016-12-17T06:41:30.515Z,0
2016-12-17T06:42:10.997Z,0
2016-12-17T06:42:51.490Z,0
2016-12-17T06:43:31.996Z,0
2016-12-17T06:44:12.504Z,0
2016-12-17T06:44:52.979Z,0
2016-12-17T06:45:33.475Z,0
2016-12-17T06:46:13.972Z,0
2016-12-17T06:46:54.453Z,0
2016-12-17T06:47:34.964Z,0
2016-12-17T06:48:15.463Z,0
2016-12-17T06:48:55.959Z,0
2016-12-17T06:49:36.448Z,0
2016-12-17T06:50:16.932Z,0
2016-12-17T06:50:57.422Z,0
2016-12-17T06:51:37.881Z,0
2016-12-17T06:52:18.383Z,0
2016-12-17T06:52:58.863Z,0
2016-12-17T06:53:39.368Z,0
2016-12-17T06:54:19.856Z,0
2016-12-17T06:55:00.337Z,0
2016-12-17T06:55:40.836Z,0
2016-12-17T06:56:21.320Z,0
2016-12-17T06:57:01.820Z,0
2016-12-17T06:57:42.319Z,0
2016-12-17T06:58:22.814Z,0
2016-12-17T06:59:03.304Z,0
2016-12-17T06:59:43.787Z,0
2016-12-17T07:00:24.278Z,0
2016-12-17T07:01:04.772Z,0
2016-12-17T07:01:45.269Z,0
2016-12-17T07:02:25.769Z,0
2016-12-17T07:03:06.259Z,0
2016-12-17T07:03:46.737Z,0
2016-12-17T07:04:27.236Z,0
2016-12-17T07:05:07.711Z,0
2016-12-17T07:05:48.220Z,0
2016-12-17T07:06:28.731Z,0
2016-12-17T07:07:09.205Z,0
2016-12-17T07:07:49.703Z,0
2016-12-17T07:08:30.177Z,0
2016-12-17T07:09:10.664Z,0
2016-12-17T07:09:51.143Z,0
2016-12-17T07:10:31.643Z,0
2016-12-17T07:11:12.119Z,0
2016-12-17T07:11:52.612Z,0
2016-12-17T07:12:33.114Z,0
2016-12-17T07:13:13.617Z,0
2016-12-17T07:13:54.107Z,0
2016-12-17T07:14:34.598Z,0
2016-12-17T07:15:15.106Z,0
2016-12-17T07:15:55.629Z,0
2016-12-17T07:16:36.113Z,0
2016-12-17T07:17:16.601Z,0
2016-12-17T07:17:57.106Z,0
2016-12-17T07:18:37.586Z,0
2016-12-17T07:19:18.084Z,0
2016-12-17T07:19:58.591Z,0
2016-12-17T07:20:39.090Z,0
2016-12-17T07:21:19.593Z,0
2016-12-17T07:22:00.087Z,0
2016-12-17T07:22:40.572Z,0
2016-12-17T07:23:21.058Z,0
2016-12-17T07:24:01.560Z,0
2016-12-17T07:24:42.047Z,0
2016-12-17T07:25:22.525Z,0
2016-12-17T07:26:03.024Z,0
2016-12-17T07:26:43.516Z,0
2016-12-17T07:27:24.005Z,0
2016-12-17T07:28:04.497Z,0
2016-12-17T07:28:45.005Z,0
2016-12-17T07:29:25.524Z,0
2016-12-17T07:30:05.989Z,0
2016-12-17T07:30:46.458Z,0
2016-12-17T07:31:26.941Z,0
2016-12-17T07:32:07.438Z,0
2016-12-17T07:32:47.928Z,0
2016-12-17T07:33:28.421Z,0
2016-12-17T07:34:08.926Z,0
2016-12-17T07:34:49.424Z,0
2016-12-17T07:35:29.936Z,0
2016-12-17T07:36:10.453Z,0
2016-12-17T07:36:50.970Z,0
2016-12-17T07:37:31.460Z,0
2016-12-17T07:38:11.947Z,0
2016-12-17T07:38:52.415Z,0
2016-12-17T07:39:32.936Z,0
2016-12-17T07:41:47.073Z,0
2016-12-17T07:42:27.560Z,0
2016-12-17T07:43:08.046Z,0
2016-12-17T07:43:48.561Z,0
2016-12-17T07:44:29.048Z,0
2016-12-17T07:45:09.537Z,0
2016-12-17T07:45:50.028Z,0
2016-12-17T07:46:30.538Z,5
2016-12-17T07:47:11.045Z,5
2016-12-17T07:47:51.537Z,5
2016-12-17T07:48:32.044Z,5
2016-12-17T07:49:12.537Z,5
2016-12-17T07:49:53.007Z,5
2016-12-17T07:50:33.513Z,5
2016-12-17T07:51:14.003Z,5
2016-12-17T07:51:54.491Z,5
2016-12-17T07:52:34.991Z,5
2016-12-17T07:53:15.468Z,5
2016-12-17T07:53:55.957Z,5
2016-12-17T07:54:36.458Z,5
2016-12-17T07:55:16.944Z,5
2016-12-17T07:55:57.432Z,5
2016-12-17T07:56:37.935Z,5
2016-12-17T07:57:18.416Z,5
2016-12-17T07:57:58.881Z,5
2016-12-17T07:58:39.375Z,5
2016-12-17T07:59:19.843Z,5
2016-12-17T08:00:00.339Z,5
2016-12-17T08:00:40.828Z,10
2016-12-17T08:01:21.332Z,10
2016-12-17T08:02:01.831Z,10
2016-12-17T08:02:42.294Z,10
2016-12-17T08:03:22.817Z,10
2016-12-17T08:04:03.309Z,10
2016-12-17T08:04:43.799Z,10
2016-12-17T08:05:24.281Z,10
2016-12-17T08:06:04.778Z,10
2016-12-17T08:06:45.272Z,10
2016-12-17T08:07:25.772Z,10
2016-12-17T08:08:06.269Z,15
2016-12-17T08:08:46.765Z,15
2016-12-17T08:09:27.271Z,15
2016-12-17T08:10:07.759Z,15
2016-12-17T08:10:48.261Z,15
2016-12-17T08:11:28.766Z,15
2016-12-17T08:12:09.268Z,15
2016-12-17T08:12:49.757Z,15
2016-12-17T08:13:30.249Z,15
2016-12-17T08:14:10.750Z,15
2016-12-17T08:14:51.246Z,15
2016-12-17T08:15:31.740Z,20
2016-12-17T08:16:12.231Z,20
2016-12-17T08:16:52.723Z,20
2016-12-17T08:17:33.221Z,20
2016-12-17T08:18:13.715Z,20
2016-12-17T08:18:54.203Z,20
2016-12-17T08:19:34.706Z,20
2016-12-17T08:20:15.199Z,20
2016-12-17T08:20:55.730Z,20
2016-12-17T08:21:36.228Z,20
2016-12-17T08:22:16.725Z,20
2016-12-17T08:22:57.213Z,20
2016-12-17T08:23:37.702Z,25
2016-12-17T08:24:18.181Z,25
2016-12-17T08:24:58.685Z,25
2016-12-17T08:25:39.184Z,25
2016-12-17T08:26:19.684Z,25
2016-12-17T08:27:00.167Z,25
2016-12-17T08:27:40.699Z,25
2016-12-17T08:28:21.186Z,30
2016-12-17T08:29:01.666Z,30
2016-12-17T08:29:42.165Z,30
2016-12-17T08:30:22.648Z,30
2016-12-17T08:31:03.146Z,35
2016-12-17T08:31:43.642Z,35
2016-12-17T08:32:24.121Z,35
2016-12-17T08:33:04.620Z,35
2016-12-17T08:33:45.096Z,35
2016-12-17T08:34:25.584Z,35
2016-12-17T08:35:06.075Z,35
2016-12-17T08:35:46.558Z,40
2016-12-17T08:36:27.043Z,40
2016-12-17T08:37:07.561Z,40
2016-12-17T08:37:48.060Z,40
2016-12-17T08:38:28.540Z,40
2016-12-17T08:39:09.059Z,40
2016-12-17T08:39:49.557Z,40
2016-12-17T08:40:30.054Z,45
2016-12-17T08:41:10.555Z,45
2016-12-17T08:41:51.036Z,45
2016-12-17T08:42:31.528Z,45
2016-12-17T08:43:12.027Z,45
2016-12-17T08:43:52.518Z,45
2016-12-17T08:44:33.012Z,45
2016-12-17T08:45:13.527Z,45
2016-12-17T08:45:54.025Z,45
2016-12-17T08:46:34.507Z,45
2016-12-17T08:47:14.989Z,45
2016-12-17T08:47:55.462Z,45
2016-12-17T08:48:35.940Z,45
2016-12-17T08:49:16.432Z,45
2016-12-17T08:49:56.934Z,45
2016-12-17T08:50:37.430Z,45
2016-12-17T08:51:17.929Z,45
2016-12-17T08:51:58.427Z,45
2016-12-17T08:52:38.884Z,45
2016-12-17T08:53:19.372Z,45
2016-12-17T08:53:59.872Z,45
2016-12-17T08:54:40.369Z,40
2016-12-17T08:55:20.858Z,40
2016-12-17T08:56:01.354Z,40
2016-12-17T08:56:41.845Z,40
2016-12-17T08:57:22.334Z,40
2016-12-17T08:58:02.844Z,40
2016-12-17T08:58:43.304Z,45
2016-12-17T08:59:23.797Z,45
2016-12-17T09:00:04.296Z,45
2016-12-17T09:00:44.794Z,45
2016-12-17T09:01:25.295Z,40
2016-12-17T09:02:05.795Z,40
2016-12-17T09:02:46.285Z,40
2016-12-17T09:03:26.775Z,45
2016-12-17T09:04:07.263Z,45
2016-12-17T09:04:47.759Z,50
2016-12-17T09:05:28.259Z,50
2016-12-17T09:06:08.750Z,50
2016-12-17T09:06:49.264Z,50
2016-12-17T09:07:29.748Z,50
2016-12-17T09:08:10.252Z,50
2016-12-17T09:08:50.735Z,50
2016-12-17T09:09:31.237Z,50
2016-12-17T09:10:11.727Z,55
2016-12-17T09:10:52.219Z,55
2016-12-17T09:11:32.724Z,55
2016-12-17T09:12:13.210Z,55
2016-12-17T09:12:53.698Z,55
2016-12-17T09:13:34.165Z,55
2016-12-17T09:14:14.662Z,55
2016-12-17T09:14:55.147Z,55
2016-12-17T09:15:35.629Z,60
2016-12-17T09:16:16.112Z,60
2016-12-17T09:16:56.594Z,60
2016-12-17T09:17:37.103Z,65
2016-12-17T09:18:17.572Z,65
2016-12-17T09:18:58.059Z,65
2016-12-17T09:19:38.560Z,65
2016-12-17T09:20:19.053Z,70
2016-12-17T09:20:59.555Z,70
2016-12-17T09:21:40.043Z,70
2016-12-17T09:22:20.551Z,70
2016-12-17T09:23:01.052Z,70
2016-12-17T09:23:41.559Z,70
2016-12-17T09:24:22.067Z,70
2016-12-17T09:25:02.634Z,70
2016-12-17T09:25:43.163Z,70
2016-12-17T09:26:23.660Z,70
2016-12-17T09:27:04.158Z,70
2016-12-17T09:27:44.663Z,70
2016-12-17T09:28:25.143Z,70
2016-12-17T09:29:05.660Z,70
2016-12-17T09:29:46.153Z,70
2016-12-17T09:30:26.652Z,70
2016-12-17T09:31:07.155Z,70
2016-12-17T09:31:47.640Z,70
2016-12-17T09:32:28.138Z,70
2016-12-17T09:33:08.639Z,70
2016-12-17T09:33:49.140Z,65
2016-12-17T09:34:29.643Z,65
2016-12-17T09:35:10.112Z,65
2016-12-17T09:35:50.611Z,65
2016-12-17T09:38:18.981Z,65
2016-12-17T09:38:59.439Z,65
2016-12-17T09:39:39.923Z,65
2016-12-17T09:40:20.482Z,65
2016-12-17T09:41:00.965Z,65
2016-12-17T09:41:41.462Z,65
2016-12-17T09:42:21.952Z,65
2016-12-17T09:43:02.514Z,65
2016-12-17T09:43:42.947Z,65
2016-12-17T09:44:23.439Z,65
2016-12-17T09:45:03.937Z,65
2016-12-17T09:45:44.417Z,65
2016-12-17T09:46:24.916Z,60
2016-12-17T09:47:05.406Z,60
2016-12-17T09:47:45.937Z,60
2016-12-17T09:48:26.432Z,60
2016-12-17T09:49:06.941Z,65
2016-12-17T09:49:47.412Z,65
2016-12-17T09:50:27.888Z,65
2016-12-17T09:51:08.392Z,65
2016-12-17T09:51:48.881Z,65
2016-12-17T09:52:29.371Z,65
2016-12-17T09:53:09.871Z,65
2016-12-17T09:53:50.377Z,65
2016-12-17T09:54:30.874Z,60
2016-12-17T09:55:11.359Z,60
2016-12-17T09:55:51.854Z,65
2016-12-17T09:56:32.328Z,65
2016-12-17T09:57:12.846Z,65
2016-12-17T09:57:53.349Z,65